createdAt,value
2023-04-16T00:01:02.970Z,96045.94
2023-04-16T00:03:31.158Z,96053.53
2023-04-16T00:05:59.388Z,96054.31
2023-04-16T00:08:27.615Z,96050.13
2023-04-16T00:10:57.291Z,96050.38
2023-04-16T00:13:26.234Z,96051.16
2023-04-16T00:15:54.292Z,96048.56
2023-04-16T00:18:22.387Z,96055.34
2023-04-16T00:20:50.793Z,96047.78
2023-04-16T00:23:19.069Z,96056.41
2023-04-16T00:25:47.181Z,96065.31
2023-04-16T00:28:16.610Z,96051.69
2023-04-16T00:30:44.774Z,96051.97
2023-04-16T00:33:12.930Z,96044.38
2023-04-16T00:35:41.190Z,96049.59
2023-04-16T00:38:09.402Z,96052.22
2023-04-16T00:40:37.523Z,96062.19
2023-04-16T00:43:06.698Z,96050.38
2023-04-16T00:45:36.391Z,96054.31
2023-04-16T00:48:05.068Z,96058.50
2023-04-16T00:50:33.100Z,96061.38
2023-04-16T00:53:01.754Z,96067.91
2023-04-16T00:55:30.058Z,96062.69
2023-04-16T00:57:58.175Z,96060.06
2023-04-16T01:00:27.008Z,96061.13
2023-04-16T01:02:57.161Z,96062.16
2023-04-16T01:05:25.386Z,96070.53
2023-04-16T01:07:53.520Z,96075.75
2023-04-16T01:10:21.725Z,96072.63
2023-04-16T01:12:49.767Z,96061.91
2023-04-16T01:15:17.957Z,96057.44
2023-04-16T01:17:47.390Z,96063.19
2023-04-16T01:20:17.004Z,96051.69
2023-04-16T01:22:46.416Z,96057.97
2023-04-16T01:25:16.836Z,96068.97
2023-04-16T01:27:44.892Z,96061.63
2023-04-16T01:30:13.295Z,96060.06
2023-04-16T01:32:41.382Z,96057.19
2023-04-16T01:35:09.520Z,96061.63
2023-04-16T01:37:37.548Z,96056.94
2023-04-16T01:40:08.107Z,96066.34
2023-04-16T01:42:36.197Z,96063.19
2023-04-16T01:45:04.468Z,96064.78
2023-04-16T01:47:32.665Z,96063.47
2023-04-16T01:50:01.154Z,96072.09
2023-04-16T01:52:29.239Z,96063.19
2023-04-16T01:54:57.343Z,96067.38
2023-04-16T01:57:26.784Z,96072.63
2023-04-16T01:59:54.856Z,96070.28
2023-04-16T02:02:28.189Z,96071.31
2023-04-16T02:04:57.527Z,96065.31
2023-04-16T02:07:27.428Z,96066.34
2023-04-16T02:09:55.854Z,96070.00
2023-04-16T02:12:23.877Z,96075.25
2023-04-16T02:14:53.531Z,96072.63
2023-04-16T02:17:21.838Z,96067.38
2023-04-16T02:19:49.828Z,96079.94
2023-04-16T02:22:17.902Z,96072.88
2023-04-16T02:24:45.999Z,96069.50
2023-04-16T02:27:14.012Z,96072.63
2023-04-16T02:29:42.329Z,96073.94
2023-04-16T02:32:11.936Z,96055.88
2023-04-16T02:34:40.504Z,96064.25
2023-04-16T02:37:08.524Z,96064.00
2023-04-16T02:39:36.642Z,96075.25
2023-04-16T02:42:04.906Z,96065.03
2023-04-16T02:44:32.899Z,96066.09
2023-04-16T02:47:00.860Z,96060.84
2023-04-16T02:49:30.335Z,96060.59
2023-04-16T02:51:58.354Z,96066.88
2023-04-16T02:54:26.454Z,96056.94
2023-04-16T02:56:54.487Z,96062.41
2023-04-16T02:59:22.567Z,96063.22
2023-04-16T03:01:50.708Z,96059.03
2023-04-16T03:04:18.887Z,96064.25
2023-04-16T03:06:48.290Z,96066.34
2023-04-16T03:09:16.308Z,96061.38
2023-04-16T03:11:44.373Z,96059.53
2023-04-16T03:14:12.534Z,96057.19
2023-04-16T03:16:40.625Z,96070.28
2023-04-16T03:19:08.830Z,96075.75
2023-04-16T03:21:37.161Z,96068.69
2023-04-16T03:24:06.683Z,96065.03
2023-04-16T03:26:34.674Z,96061.09
2023-04-16T03:29:03.327Z,96050.66
2023-04-16T03:31:31.713Z,96058.50
2023-04-16T03:33:59.856Z,96057.19
2023-04-16T03:36:28.247Z,96060.06
2023-04-16T03:38:56.246Z,96059.03
2023-04-16T03:41:25.766Z,96068.19
2023-04-16T03:43:53.815Z,96062.94
2023-04-16T03:46:21.962Z,96057.19
2023-04-16T03:48:49.988Z,96054.03
2023-04-16T03:51:17.938Z,96056.41
2023-04-16T03:53:46.028Z,96050.63
2023-04-16T03:56:14.006Z,96046.47
2023-04-16T03:58:43.497Z,96056.13
2023-04-16T04:01:11.505Z,96046.47
2023-04-16T04:03:39.680Z,96051.16
2023-04-16T04:06:08.821Z,96053.25
2023-04-16T04:08:36.955Z,96050.63
2023-04-16T04:11:05.139Z,96055.38
2023-04-16T04:13:33.241Z,96057.47
2023-04-16T04:16:02.774Z,96055.91
2023-04-16T04:18:30.815Z,96060.06
2023-04-16T04:20:58.898Z,96056.94
2023-04-16T04:23:26.927Z,96057.97
2023-04-16T04:25:54.987Z,96060.31
2023-04-16T04:28:23.118Z,96062.69
2023-04-16T04:30:51.188Z,96062.69
2023-04-16T04:33:20.657Z,96060.59
2023-04-16T04:35:48.735Z,96058.50
2023-04-16T04:38:19.976Z,96059.03
2023-04-16T04:40:48.076Z,96057.47
2023-04-16T04:43:16.209Z,96058.00
2023-04-16T04:45:44.389Z,96056.41
2023-04-16T04:48:12.466Z,96057.47
2023-04-16T04:50:42.187Z,96052.50
2023-04-16T04:53:11.201Z,96059.53
2023-04-16T04:55:39.573Z,96049.84
2023-04-16T04:58:08.691Z,96054.56
2023-04-16T05:00:37.749Z,96050.13
2023-04-16T05:03:08.253Z,96055.63
2023-04-16T05:05:36.427Z,96057.19
2023-04-16T05:08:06.628Z,96058.75
2023-04-16T05:10:34.725Z,96054.84
2023-04-16T05:13:02.722Z,96061.09
2023-04-16T05:15:30.786Z,96052.47
2023-04-16T05:17:58.807Z,96059.00
2023-04-16T05:20:26.923Z,96068.69
2023-04-16T05:22:55.537Z,96070.00
2023-04-16T05:25:25.126Z,96071.06
2023-04-16T05:27:53.193Z,96070.53
2023-04-16T05:30:21.330Z,96076.28
2023-04-16T05:32:49.395Z,96076.00
2023-04-16T05:35:17.834Z,96080.47
2023-04-16T05:37:45.910Z,96068.94
2023-04-16T05:40:15.322Z,96072.63
2023-04-16T05:42:44.698Z,96072.88
2023-04-16T05:45:13.197Z,96076.81
2023-04-16T05:47:41.292Z,96082.03
2023-04-16T05:50:09.811Z,96079.16
2023-04-16T05:52:37.911Z,96079.44
2023-04-16T05:55:07.269Z,96078.38
2023-04-16T05:57:35.449Z,96081.53
2023-04-16T06:00:05.496Z,96077.06
2023-04-16T06:02:33.870Z,96068.97
2023-04-16T06:05:02.185Z,96074.72
2023-04-16T06:07:30.601Z,96078.38
2023-04-16T06:09:58.652Z,96066.88
2023-04-16T06:12:27.261Z,96074.72
2023-04-16T06:14:55.332Z,96067.91
2023-04-16T06:17:24.955Z,96077.06
2023-04-16T06:19:53.009Z,96066.88
2023-04-16T06:22:21.194Z,96070.78
2023-04-16T06:24:49.358Z,96078.38
2023-04-16T06:27:17.653Z,96076.03
2023-04-16T06:29:45.742Z,96075.75
2023-04-16T06:32:13.862Z,96080.47
2023-04-16T06:34:43.319Z,96075.75
2023-04-16T06:37:11.450Z,96079.16
2023-04-16T06:39:39.439Z,96075.72
2023-04-16T06:42:07.489Z,96083.84
2023-04-16T06:44:36.522Z,96071.47
2023-04-16T06:47:04.721Z,96072.47
2023-04-16T06:49:32.817Z,96083.94
2023-04-16T06:52:04.505Z,96085.47
2023-04-16T06:54:33.906Z,96082.28
2023-04-16T06:57:02.071Z,96082.44
2023-04-16T06:59:30.201Z,96078.91
2023-04-16T07:01:58.367Z,96079.94
2023-04-16T07:04:26.611Z,96078.34
2023-04-16T07:06:54.625Z,96079.50
2023-04-16T07:09:24.074Z,96085.03
2023-04-16T07:11:52.182Z,96087.47
2023-04-16T07:14:20.265Z,96091.06
2023-04-16T07:16:48.298Z,96086.03
2023-04-16T07:19:16.411Z,96078.34
2023-04-16T07:21:44.637Z,96081.19
2023-04-16T07:24:12.710Z,96076.75
2023-04-16T07:26:42.267Z,96084.22
2023-04-16T07:29:10.492Z,96079.75
2023-04-16T07:31:38.788Z,96078.41
2023-04-16T07:34:06.910Z,96082.75
2023-04-16T07:36:34.923Z,96073.84
2023-04-16T07:39:03.136Z,96063.06
2023-04-16T07:41:31.233Z,96058.28
2023-04-16T07:44:01.238Z,96065.75
2023-04-16T07:46:39.380Z,96069.44
2023-04-16T07:49:14.142Z,96070.06
2023-04-16T07:51:42.259Z,96064.53
2023-04-16T07:54:10.357Z,96074.16
2023-04-16T07:56:38.462Z,96085.91
2023-04-16T07:59:19.205Z,96089.28
2023-04-16T08:01:51.013Z,96083.31
2023-04-16T08:04:24.769Z,96085.88
2023-04-16T08:06:53.686Z,96090.41
2023-04-16T08:09:22.320Z,96090.97
2023-04-16T08:11:50.962Z,96095.63
2023-04-16T08:14:20.548Z,96098.19
2023-04-16T08:16:48.662Z,96098.41
2023-04-16T08:19:16.776Z,96108.56
2023-04-16T08:21:45.025Z,96115.25
2023-04-16T08:24:13.106Z,96113.44
2023-04-16T08:26:41.334Z,96113.72
2023-04-16T08:29:09.756Z,96115.56
2023-04-16T08:31:39.574Z,96121.69
2023-04-16T08:34:07.840Z,96128.06
2023-04-16T08:36:35.825Z,96133.47
2023-04-16T08:39:03.983Z,96133.63
2023-04-16T08:41:33.583Z,96130.09
2023-04-16T08:44:08.846Z,96139.16
2023-04-16T08:46:41.891Z,96139.44
2023-04-16T08:49:10.697Z,96135.88
2023-04-16T08:51:43.581Z,96135.38
2023-04-16T08:54:16.251Z,96137.00
2023-04-16T08:56:44.917Z,96126.84
2023-04-16T08:59:13.208Z,96137.69
2023-04-16T09:01:43.491Z,96130.88
2023-04-16T09:04:12.104Z,96123.56
2023-04-16T09:06:42.021Z,96116.47
2023-04-16T09:09:11.751Z,96119.50
2023-04-16T09:11:40.551Z,96126.22
2023-04-16T09:14:11.346Z,96123.09
2023-04-16T09:16:41.078Z,96115.63
2023-04-16T09:19:11.278Z,96119.59
2023-04-16T09:21:41.042Z,96109.47
2023-04-16T09:24:10.245Z,96110.25
2023-04-16T09:26:38.698Z,96120.66
2023-04-16T09:29:06.868Z,96131.06
2023-04-16T09:31:35.083Z,96114.97
2023-04-16T09:34:05.515Z,96121.03
2023-04-16T09:36:35.881Z,96122.28
2023-04-16T09:39:04.965Z,96115.69
2023-04-16T09:41:36.069Z,96113.03
2023-04-16T09:44:06.084Z,96121.34
2023-04-16T09:46:36.492Z,96116.56
2023-04-16T09:49:10.077Z,96125.69
2023-04-16T09:51:42.088Z,96112.44
2023-04-16T09:54:11.791Z,96120.84
2023-04-16T09:56:42.698Z,96119.66
2023-04-16T09:59:17.861Z,96123.94
2023-04-16T10:01:47.223Z,96116.91
2023-04-16T10:04:15.689Z,96128.78
2023-04-16T10:06:48.568Z,96113.28
2023-04-16T10:09:16.663Z,96109.66
2023-04-16T10:11:44.776Z,96116.84
2023-04-16T10:14:13.032Z,96104.19
2023-04-16T10:16:41.824Z,96108.88
2023-04-16T10:19:10.423Z,96090.91
2023-04-16T10:21:38.930Z,96094.81
2023-04-16T10:24:09.838Z,96099.31
2023-04-16T10:26:38.478Z,96098.53
2023-04-16T10:29:08.940Z,96102.44
2023-04-16T10:31:39.924Z,96104.78
2023-04-16T10:34:10.639Z,96102.84
2023-04-16T10:36:40.065Z,96104.41
2023-04-16T10:39:17.361Z,96097.47
2023-04-16T10:41:46.896Z,96105.41
2023-04-16T10:44:21.190Z,96104.41
2023-04-16T10:47:12.822Z,96106.34
2023-04-16T10:49:42.669Z,96099.91
2023-04-16T10:52:13.874Z,96112.22
2023-04-16T10:54:44.194Z,96096.81
2023-04-16T10:57:18.022Z,96099.19
2023-04-16T10:59:47.604Z,96097.03
2023-04-16T11:02:18.519Z,96102.69
2023-04-16T11:04:48.062Z,96084.78
2023-04-16T11:07:19.504Z,96091.72
2023-04-16T11:09:54.598Z,96082.41
2023-04-16T11:12:24.179Z,96083.38
2023-04-16T11:14:53.754Z,96082.91
2023-04-16T11:17:24.355Z,96086.09
2023-04-16T11:19:55.737Z,96089.91
2023-04-16T11:22:29.864Z,96094.63
2023-04-16T11:25:06.892Z,96092.75
2023-04-16T11:27:40.734Z,96076.03
2023-04-16T11:30:15.555Z,96085.28
2023-04-16T11:32:49.193Z,96080.41
2023-04-16T11:35:23.405Z,96081.59
2023-04-16T11:38:03.149Z,96073.59
2023-04-16T11:40:38.963Z,96074.31
2023-04-16T11:43:15.838Z,96068.88
2023-04-16T11:45:58.784Z,96071.00
2023-04-16T11:48:27.452Z,96075.94
2023-04-16T11:50:59.147Z,96067.88
2023-04-16T11:53:27.363Z,96069.19
2023-04-16T11:55:57.328Z,96065.16
2023-04-16T11:58:25.448Z,96067.50
2023-04-16T12:00:56.940Z,96070.75
2023-04-16T12:03:39.765Z,96064.69
2023-04-16T12:06:11.926Z,96063.13
2023-04-16T12:08:40.048Z,96065.00
2023-04-16T12:11:09.827Z,96059.09
2023-04-16T12:13:40.316Z,96056.63
2023-04-16T12:16:21.872Z,96061.63
2023-04-16T12:19:04.031Z,96046.97
2023-04-16T12:21:39.842Z,96044.16
2023-04-16T12:24:09.452Z,96049.31
2023-04-16T12:26:43.308Z,96043.72
2023-04-16T12:31:48.290Z,96044.78
2023-04-16T12:34:17.499Z,96050.97
2023-04-16T12:36:46.767Z,96043.66
2023-04-16T12:39:17.233Z,96033.69
2023-04-16T12:41:47.978Z,96031.50
2023-04-16T12:44:18.571Z,96037.56
2023-04-16T12:46:46.938Z,96037.28
2023-04-16T12:49:15.141Z,96031.38
2023-04-16T12:51:43.716Z,96033.41
2023-04-16T12:54:12.095Z,96032.63
2023-04-16T12:56:40.238Z,96026.56
2023-04-16T12:59:10.644Z,96036.38
2023-04-16T13:01:39.058Z,96040.53
2023-04-16T13:04:07.764Z,96025.53
2023-04-16T13:06:37.767Z,96022.84
2023-04-16T13:09:06.033Z,96015.53
2023-04-16T13:11:34.321Z,96025.31
2023-04-16T13:14:02.516Z,96019.53
2023-04-16T13:16:32.384Z,96022.78
2023-04-16T13:19:00.433Z,96006.31
2023-04-16T13:21:28.674Z,96011.44
2023-04-16T13:23:56.784Z,96002.75
2023-04-16T13:26:24.830Z,95990.16
2023-04-16T13:28:53.082Z,96004.16
2023-04-16T13:31:22.234Z,96006.66
2023-04-16T13:33:52.837Z,96005.72
2023-04-16T13:36:20.873Z,95995.47
2023-04-16T13:38:49.040Z,96003.56
2023-04-16T13:41:17.045Z,95997.06
2023-04-16T13:43:45.143Z,96010.47
2023-04-16T13:46:13.504Z,95999.75
2023-04-16T13:48:41.736Z,96002.84
2023-04-16T13:51:11.214Z,95994.31
2023-04-16T13:53:39.227Z,95993.22
2023-04-16T13:56:07.422Z,95999.59
2023-04-16T13:58:35.627Z,96010.03
2023-04-16T14:01:03.855Z,96007.09
2023-04-16T14:03:35.962Z,95999.16
2023-04-16T14:06:04.191Z,96016.25
2023-04-16T14:08:33.787Z,96012.38
2023-04-16T14:11:02.561Z,96002.56
2023-04-16T14:13:30.685Z,95997.25
2023-04-16T14:15:58.826Z,96005.66
2023-04-16T14:18:26.926Z,95987.13
2023-04-16T14:20:55.058Z,95989.78
2023-04-16T14:23:23.155Z,95998.34
2023-04-16T14:25:53.087Z,95995.38
2023-04-16T14:28:21.687Z,96003.50
2023-04-16T14:30:49.841Z,95995.06
2023-04-16T14:33:17.996Z,95991.53
2023-04-16T14:35:46.200Z,95987.94
2023-04-16T14:38:14.368Z,95992.91
2023-04-16T14:40:42.589Z,95996.66
2023-04-16T14:43:12.099Z,95991.50
2023-04-16T14:45:40.628Z,95987.00
2023-04-16T14:48:09.116Z,95994.31
2023-04-16T14:50:38.446Z,95991.50
2023-04-16T14:53:06.942Z,95985.44
2023-04-16T14:55:35.634Z,95979.06
2023-04-16T14:58:04.368Z,95985.28
2023-04-16T15:00:35.837Z,95984.50
2023-04-16T15:03:04.907Z,95982.00
2023-04-16T15:05:33.288Z,95986.38
2023-04-16T15:08:01.735Z,95993.06
2023-04-16T15:10:29.811Z,95981.06
2023-04-16T15:12:57.966Z,95977.22
2023-04-16T15:15:26.117Z,95985.47
2023-04-16T15:17:57.175Z,95996.16
2023-04-16T15:20:25.377Z,95991.25
2023-04-16T15:22:54.719Z,96007.84
2023-04-16T15:25:23.574Z,95999.44
2023-04-16T15:27:51.622Z,96009.41
2023-04-16T15:30:20.272Z,96005.34
2023-04-16T15:32:48.726Z,96006.06
2023-04-16T15:35:18.348Z,96002.59
2023-04-16T15:37:46.520Z,96014.66
2023-04-16T15:40:16.059Z,96016.63
2023-04-16T15:42:44.671Z,96012.91
2023-04-16T15:45:12.803Z,96009.78
2023-04-16T15:47:41.992Z,96011.34
2023-04-16T15:50:10.359Z,96013.16
2023-04-16T15:52:40.333Z,96020.44
2023-04-16T15:55:08.816Z,96019.47
2023-04-16T15:57:37.231Z,96023.63
2023-04-16T16:00:13.500Z,96032.25
2023-04-16T16:02:42.085Z,96022.69
2023-04-16T16:05:11.980Z,96012.16
2023-04-16T16:07:42.042Z,96031.34
2023-04-16T16:10:11.303Z,96036.44
2023-04-16T16:12:39.486Z,96038.19
2023-04-16T16:15:09.253Z,96033.91
2023-04-16T16:17:37.592Z,96040.97
2023-04-16T16:20:09.600Z,96031.38
2023-04-16T16:22:38.214Z,96029.44
2023-04-16T16:25:10.154Z,96033.53
2023-04-16T16:27:38.311Z,96032.34
2023-04-16T16:30:07.746Z,96038.00
2023-04-16T16:32:36.162Z,96045.03
2023-04-16T16:35:04.451Z,96041.69
2023-04-16T16:37:33.137Z,96051.06
2023-04-16T16:40:01.312Z,96044.59
2023-04-16T16:42:30.764Z,96038.63
2023-04-16T16:44:58.829Z,96046.03
2023-04-16T16:47:27.078Z,96046.53
2023-04-16T16:49:55.237Z,96045.06
2023-04-16T16:52:24.510Z,96048.47
2023-04-16T16:54:53.900Z,96058.50
2023-04-16T16:57:21.984Z,96056.16
2023-04-16T16:59:51.758Z,96055.66
2023-04-16T17:02:19.980Z,96060.16
2023-04-16T17:04:48.114Z,96070.25
2023-04-16T17:07:16.178Z,96067.69
2023-04-16T17:09:44.384Z,96069.34
2023-04-16T17:12:12.450Z,96068.41
2023-04-16T17:14:40.787Z,96073.22
2023-04-16T17:17:10.277Z,96072.22
2023-04-16T17:19:38.367Z,96065.97
2023-04-16T17:22:06.514Z,96060.72
2023-04-16T17:24:34.644Z,96075.50
2023-04-16T17:27:03.393Z,96072.94
2023-04-16T17:29:31.555Z,96083.53
2023-04-16T17:31:59.819Z,96080.47
2023-04-16T17:34:29.476Z,96081.81
2023-04-16T17:36:57.627Z,96086.06
2023-04-16T17:39:25.770Z,96087.41
2023-04-16T17:41:57.364Z,96090.31
2023-04-16T17:44:25.894Z,96090.13
2023-04-16T17:46:53.907Z,96093.34
2023-04-16T17:49:22.018Z,96085.00
2023-04-16T17:51:51.486Z,96099.28
2023-04-16T17:54:19.551Z,96105.66
2023-04-16T17:56:47.708Z,96106.47
2023-04-16T17:59:15.779Z,96095.53
2023-04-16T18:01:44.590Z,96098.19
2023-04-16T18:04:13.333Z,96107.97
2023-04-16T18:06:41.737Z,96108.81
2023-04-16T18:09:12.190Z,96108.34
2023-04-16T18:11:40.426Z,96117.06
2023-04-16T18:14:10.138Z,96113.94
2023-04-16T18:16:38.457Z,96111.59
2023-04-16T18:19:06.660Z,96124.50
2023-04-16T18:21:35.568Z,96120.91
2023-04-16T18:24:03.676Z,96117.81
2023-04-16T18:26:35.698Z,96126.75
2023-04-16T18:29:04.257Z,96116.22
2023-04-16T18:31:32.411Z,96117.81
2023-04-16T18:34:00.598Z,96129.84
2023-04-16T18:36:28.769Z,96123.84
2023-04-16T18:39:01.558Z,96131.22
2023-04-16T18:41:32.217Z,96135.69
2023-04-16T18:44:00.506Z,96138.56
2023-04-16T18:46:28.602Z,96140.41
2023-04-16T18:48:56.699Z,96130.19
2023-04-16T18:51:25.101Z,96132.31
2023-04-16T18:53:53.162Z,96146.25
2023-04-16T18:56:21.793Z,96144.19
2023-04-16T18:58:51.260Z,96143.66
2023-04-16T19:01:19.324Z,96153.94
2023-04-16T19:03:47.604Z,96135.84
2023-04-16T19:06:15.872Z,96138.44
2023-04-16T19:08:44.059Z,96148.72
2023-04-16T19:11:12.092Z,96145.81
2023-04-16T19:13:40.168Z,96150.00
2023-04-16T19:16:11.717Z,96152.63
2023-04-16T19:18:40.110Z,96144.75
2023-04-16T19:21:10.163Z,96153.94
2023-04-16T19:23:38.222Z,96167.34
2023-04-16T19:26:06.393Z,96159.47
2023-04-16T19:28:34.550Z,96165.78
2023-04-16T19:31:02.639Z,96166.31
2023-04-16T19:33:32.512Z,96170.00
2023-04-16T19:36:01.875Z,96163.44
2023-04-16T19:38:31.977Z,96172.66
2023-04-16T19:41:00.175Z,96174.81
2023-04-16T19:43:30.773Z,96176.16
2023-04-16T19:45:59.376Z,96181.66
2023-04-16T19:48:27.660Z,96188.53
2023-04-16T19:50:57.256Z,96190.38
2023-04-16T19:53:25.783Z,96183.84
2023-04-16T19:55:53.899Z,96193.84
2023-04-16T19:58:22.069Z,96195.72
2023-04-16T20:00:50.339Z,96192.31
2023-04-16T20:03:18.525Z,96195.00
2023-04-16T20:05:49.514Z,96190.28
2023-04-16T20:08:19.139Z,96202.88
2023-04-16T20:10:47.445Z,96205.00
2023-04-16T20:13:18.599Z,96197.94
2023-04-16T20:15:47.290Z,96196.34
2023-04-16T20:18:15.646Z,96202.38
2023-04-16T20:20:43.717Z,96198.19
2023-04-16T20:23:11.859Z,96200.03
2023-04-16T20:25:43.697Z,96190.59
2023-04-16T20:28:11.827Z,96192.97
2023-04-16T20:30:40.073Z,96187.72
2023-04-16T20:33:11.522Z,96191.38
2023-04-16T20:35:40.626Z,96191.91
2023-04-16T20:38:19.919Z,96184.31
2023-04-16T20:40:49.654Z,96188.78
2023-04-16T20:43:18.930Z,96200.31
2023-04-16T20:45:50.251Z,96204.00
2023-04-16T20:48:18.538Z,96197.69
2023-04-16T20:50:46.977Z,96201.88
2023-04-16T20:53:15.975Z,96194.03
2023-04-16T20:55:44.615Z,96191.16
2023-04-16T20:58:14.826Z,96196.16
2023-04-16T21:00:42.926Z,96187.25
2023-04-16T21:03:11.187Z,96195.63
2023-04-16T21:05:39.470Z,96192.50
2023-04-16T21:08:07.930Z,96193.81
2023-04-16T21:10:36.110Z,96199.31
2023-04-16T21:13:04.175Z,96196.94
2023-04-16T21:15:34.837Z,96191.44
2023-04-16T21:18:02.946Z,96190.41
2023-04-16T21:20:31.081Z,96177.31
2023-04-16T21:22:59.214Z,96185.44
2023-04-16T21:25:27.288Z,96192.50
2023-04-16T21:27:55.579Z,96194.59
2023-04-16T21:30:23.986Z,96191.22
2023-04-16T21:32:53.549Z,96193.06
2023-04-16T21:35:21.628Z,96197.22
2023-04-16T21:37:49.701Z,96195.69
2023-04-16T21:40:17.857Z,96187.81
2023-04-16T21:42:45.933Z,96190.44
2023-04-16T21:45:14.574Z,96187.81
2023-04-16T21:47:42.766Z,96187.28
2023-04-16T21:50:13.475Z,96181.53
2023-04-16T21:52:46.796Z,96186.25
2023-04-16T21:55:15.243Z,96180.22
2023-04-16T21:57:43.388Z,96189.13
2023-04-16T22:00:14.278Z,96183.09
2023-04-16T22:02:43.336Z,96186.75
2023-04-16T22:05:13.079Z,96188.31
2023-04-16T22:07:41.401Z,96184.13
